createdAt,value
2023-04-14T00:00:11.223Z,2150.00
2023-04-14T00:01:11.275Z,2150.00
2023-04-14T00:02:11.450Z,2145.00
2023-04-14T00:03:11.621Z,2149.00
2023-04-14T00:04:11.637Z,2145.00
2023-04-14T00:05:11.568Z,2145.00
2023-04-14T00:06:11.575Z,2148.00
2023-04-14T00:07:11.630Z,2147.00
2023-04-14T00:08:11.691Z,2145.00
2023-04-14T00:09:11.761Z,2145.00
2023-04-14T00:10:11.813Z,2143.00
2023-04-14T00:11:11.873Z,2138.00
2023-04-14T00:12:11.941Z,2132.00
2023-04-14T00:13:12.004Z,2131.00
2023-04-14T00:14:12.064Z,2134.00
2023-04-14T00:15:12.114Z,2130.00
2023-04-14T00:16:12.206Z,2129.00
2023-04-14T00:17:12.305Z,2129.00
2023-04-14T00:18:12.301Z,2134.00
2023-04-14T00:19:12.360Z,2133.00
2023-04-14T00:20:12.419Z,2134.00
2023-04-14T00:21:12.489Z,2127.00
2023-04-14T00:22:12.554Z,2124.00
2023-04-14T00:23:12.605Z,2125.00
2023-04-14T00:24:12.665Z,2123.00
2023-04-14T00:25:12.724Z,2120.00
2023-04-14T00:26:12.782Z,2118.00
2023-04-14T00:27:12.834Z,2114.00
2023-04-14T00:28:12.903Z,2116.00
2023-04-14T00:29:12.961Z,2118.00
2023-04-14T00:30:13.017Z,2119.00
2023-04-14T00:31:13.164Z,2117.00
2023-04-14T00:32:13.146Z,2117.00
2023-04-14T00:33:13.208Z,2118.00
2023-04-14T00:34:13.269Z,2115.00
2023-04-14T00:35:13.343Z,2114.00
2023-04-14T00:36:13.389Z,2112.00
2023-04-14T00:37:13.459Z,2114.00
2023-04-14T00:38:13.520Z,2114.00
2023-04-14T00:39:13.589Z,2112.00
2023-04-14T00:40:13.643Z,2111.00
2023-04-14T00:41:13.718Z,2110.00
2023-04-14T00:42:13.773Z,2108.00
2023-04-14T00:43:13.846Z,2108.00
2023-04-14T00:44:13.900Z,2109.00
2023-04-14T00:45:13.992Z,2105.00
2023-04-14T00:46:14.065Z,2104.00
2023-04-14T00:47:14.163Z,2101.00
2023-04-14T00:48:14.183Z,2101.00
2023-04-14T00:49:14.215Z,2100.00
2023-04-14T00:50:14.289Z,2092.00
2023-04-14T00:51:14.353Z,2089.00
2023-04-14T00:52:14.432Z,2088.00
2023-04-14T00:53:14.494Z,2091.00
2023-04-14T00:54:14.550Z,2085.00
2023-04-14T00:55:14.620Z,2083.00
2023-04-14T00:56:14.673Z,2078.00
2023-04-14T00:57:14.736Z,2079.00
2023-04-14T00:58:14.798Z,2084.00
2023-04-14T00:59:14.865Z,2084.00
2023-04-14T01:00:15.046Z,2082.00
2023-04-14T01:01:15.034Z,2083.00
2023-04-14T01:02:15.126Z,2082.00
2023-04-14T01:03:15.220Z,2080.00
2023-04-14T01:04:15.202Z,2078.00
2023-04-14T01:05:15.314Z,2078.00
2023-04-14T01:06:15.315Z,2077.00
2023-04-14T01:07:15.375Z,2073.00
2023-04-14T01:08:15.441Z,2071.00
2023-04-14T01:09:15.539Z,2071.00
2023-04-14T01:10:15.570Z,2074.00
2023-04-14T01:11:15.642Z,2073.00
2023-04-14T01:12:15.707Z,2072.00
2023-04-14T01:13:15.760Z,2070.00
2023-04-14T01:14:15.823Z,2068.00
2023-04-14T01:15:15.891Z,2071.00
2023-04-14T01:16:16.222Z,2068.00
2023-04-14T01:17:16.007Z,2068.00
2023-04-14T01:18:16.066Z,2069.00
2023-04-14T01:19:16.141Z,2068.00
2023-04-14T01:20:16.191Z,2069.00
2023-04-14T01:21:16.249Z,2063.00
2023-04-14T01:22:16.311Z,2058.00
2023-04-14T01:23:16.371Z,2056.00
2023-04-14T01:24:16.452Z,2053.00
2023-04-14T01:25:16.485Z,2057.00
2023-04-14T01:26:16.556Z,2058.00
2023-04-14T01:27:16.618Z,2056.00
2023-04-14T01:28:16.666Z,2053.00
2023-04-14T01:29:16.758Z,2051.00
2023-04-14T01:30:16.802Z,2051.00
2023-04-14T01:31:16.890Z,2050.00
2023-04-14T01:32:16.920Z,2050.00
2023-04-14T01:33:16.983Z,2043.00
2023-04-14T01:34:17.041Z,2046.00
2023-04-14T01:35:17.106Z,2044.00
2023-04-14T01:36:17.164Z,2044.00
2023-04-14T01:37:17.230Z,2042.00
2023-04-14T01:38:17.290Z,2039.00
2023-04-14T01:39:17.342Z,2039.00
2023-04-14T01:40:17.395Z,2038.00
2023-04-14T01:41:17.457Z,2038.00
2023-04-14T01:42:17.522Z,2037.00
2023-04-14T01:43:17.573Z,2035.00
2023-04-14T01:44:17.629Z,2030.00
2023-04-14T01:45:17.699Z,2030.00
2023-04-14T01:46:17.939Z,2026.00
2023-04-14T01:47:17.806Z,2020.00
2023-04-14T01:48:17.868Z,2021.00
2023-04-14T01:49:17.979Z,2022.00
2023-04-14T01:50:17.981Z,2022.00
2023-04-14T01:51:18.050Z,2021.00
2023-04-14T01:52:18.100Z,2020.00
2023-04-14T01:53:18.162Z,2021.00
2023-04-14T01:54:18.205Z,2019.00
2023-04-14T01:55:18.282Z,2018.00
2023-04-14T01:56:18.347Z,2014.00
2023-04-14T01:57:18.389Z,2009.00
2023-04-14T01:58:18.452Z,2007.00
2023-04-14T01:59:18.507Z,2000.00
2023-04-14T02:00:18.576Z,2000.00
2023-04-14T02:01:18.646Z,2001.00
2023-04-14T02:02:18.772Z,2002.00
2023-04-14T02:03:18.816Z,1997.00
2023-04-14T02:04:18.836Z,1999.00
2023-04-14T02:05:18.875Z,1998.00
2023-04-14T02:06:18.922Z,2000.00
2023-04-14T02:07:18.988Z,2001.00
2023-04-14T02:08:19.034Z,1998.00
2023-04-14T02:09:19.087Z,1995.00
2023-04-14T02:10:19.144Z,1998.00
2023-04-14T02:11:19.206Z,2001.00
2023-04-14T02:12:19.241Z,2004.00
2023-04-14T02:13:19.318Z,2006.00
2023-04-14T02:14:19.376Z,2002.00
2023-04-14T02:15:19.449Z,1999.00
2023-04-14T02:16:19.522Z,1997.00
2023-04-14T02:17:19.605Z,1995.00
2023-04-14T02:18:19.644Z,1991.00
2023-04-14T02:19:19.709Z,1990.00
2023-04-14T02:20:19.746Z,1989.00
2023-04-14T02:21:19.806Z,1988.00
2023-04-14T02:22:19.864Z,1988.00
2023-04-14T02:23:19.925Z,1988.00
2023-04-14T02:24:19.984Z,1987.00
2023-04-14T02:25:20.051Z,1982.00
2023-04-14T02:26:20.124Z,1984.00
2023-04-14T02:27:20.512Z,1977.00
2023-04-14T02:28:20.238Z,1976.00
2023-04-14T02:29:20.306Z,1974.00
2023-04-14T02:30:20.370Z,1973.00
2023-04-14T02:31:20.452Z,1967.00
2023-04-14T02:32:20.494Z,1969.00
2023-04-14T02:33:20.562Z,1972.00
2023-04-14T02:34:20.600Z,1972.00
2023-04-14T02:35:20.666Z,1971.00
2023-04-14T02:36:20.739Z,1968.00
2023-04-14T02:37:20.797Z,1967.00
2023-04-14T02:38:20.852Z,1968.00
2023-04-14T02:39:20.907Z,1968.00
2023-04-14T02:40:20.964Z,1970.00
2023-04-14T02:41:21.016Z,1969.00
2023-04-14T02:42:21.086Z,1965.00
2023-04-14T02:43:21.153Z,1960.00
2023-04-14T02:44:21.220Z,1959.00
2023-04-14T02:45:21.283Z,1961.00
2023-04-14T02:46:21.395Z,1956.00
2023-04-14T02:47:21.428Z,1955.00
2023-04-14T02:48:21.476Z,1952.00
2023-04-14T02:49:21.524Z,1953.00
2023-04-14T02:50:21.669Z,1952.00
2023-04-14T02:51:21.638Z,1949.00
2023-04-14T02:52:21.702Z,1947.00
2023-04-14T02:53:21.761Z,1942.00
2023-04-14T02:54:21.829Z,1940.00
2023-04-14T02:55:21.887Z,1938.00
2023-04-14T02:56:21.966Z,1937.00
2023-04-14T02:57:22.021Z,1938.00
2023-04-14T02:58:22.095Z,1941.00
2023-04-14T02:59:22.164Z,1942.00
2023-04-14T03:00:22.199Z,1940.00
2023-04-14T03:01:22.265Z,1941.00
2023-04-14T03:02:22.529Z,1940.00
2023-04-14T03:03:22.413Z,1939.00
2023-04-14T03:04:22.474Z,1939.00
2023-04-14T03:05:22.492Z,1935.00
2023-04-14T03:06:22.557Z,1933.00
2023-04-14T03:07:22.611Z,1929.00
2023-04-14T03:08:22.681Z,1930.00
2023-04-14T03:09:22.740Z,1925.00
2023-04-14T03:10:22.812Z,1921.00
2023-04-14T03:11:22.867Z,1919.00
2023-04-14T03:12:22.941Z,1917.00
2023-04-14T03:13:23.011Z,1914.00
2023-04-14T03:14:23.069Z,1912.00
2023-04-14T03:15:23.133Z,1913.00
2023-04-14T03:16:23.259Z,1910.00
2023-04-14T03:17:23.285Z,1910.00
2023-04-14T03:18:23.321Z,1909.00
2023-04-14T03:19:23.384Z,1912.00
2023-04-14T03:20:23.465Z,1909.00
2023-04-14T03:21:23.517Z,1910.00
2023-04-14T03:22:23.574Z,1910.00
2023-04-14T03:23:23.637Z,1904.00
2023-04-14T03:24:23.696Z,1903.00
2023-04-14T03:25:23.757Z,1899.00
2023-04-14T03:26:23.832Z,1899.00
2023-04-14T03:27:23.886Z,1899.00
2023-04-14T03:28:23.958Z,1901.00
2023-04-14T03:29:24.021Z,1898.00
2023-04-14T03:30:24.081Z,1899.00
2023-04-14T03:31:24.272Z,1896.00
2023-04-14T03:32:24.233Z,1895.00
2023-04-14T03:33:24.280Z,1895.00
2023-04-14T03:34:24.342Z,1894.00
2023-04-14T03:35:24.410Z,1897.00
2023-04-14T03:36:24.465Z,1900.00
2023-04-14T03:37:24.539Z,1901.00
2023-04-14T03:38:24.590Z,1902.00
2023-04-14T03:39:24.655Z,1904.00
2023-04-14T03:40:24.722Z,1905.00
2023-04-14T03:41:24.772Z,1906.00
2023-04-14T03:42:24.846Z,1910.00
2023-04-14T03:43:24.904Z,1910.00
2023-04-14T03:44:24.955Z,1904.00
2023-04-14T03:45:25.004Z,1908.00
2023-04-14T03:46:25.074Z,1906.00
2023-04-14T03:47:25.139Z,1904.00
2023-04-14T03:48:25.200Z,1903.00
2023-04-14T03:49:25.260Z,1900.00
2023-04-14T03:50:25.317Z,1898.00
2023-04-14T03:51:25.368Z,1897.00
2023-04-14T03:52:25.416Z,1896.00
2023-04-14T03:53:25.467Z,1897.00
2023-04-14T03:54:25.547Z,1894.00
2023-04-14T03:55:25.586Z,1890.00
2023-04-14T03:56:25.653Z,1890.00
2023-04-14T03:57:25.706Z,1886.00
2023-04-14T03:58:25.770Z,1884.00
2023-04-14T03:59:25.815Z,1883.00
2023-04-14T04:00:25.896Z,1883.00
2023-04-14T04:01:26.036Z,1881.00
2023-04-14T04:02:26.126Z,1883.00
2023-04-14T04:03:26.148Z,1882.00
2023-04-14T04:04:26.235Z,1879.00
2023-04-14T04:05:26.186Z,1880.00
2023-04-14T04:06:26.238Z,1878.00
2023-04-14T04:07:26.316Z,1874.00
2023-04-14T04:08:26.351Z,1875.00
2023-04-14T04:09:26.408Z,1875.00
2023-04-14T04:10:26.467Z,1876.00
2023-04-14T04:11:26.525Z,1875.00
2023-04-14T04:12:26.586Z,1873.00
2023-04-14T04:13:26.662Z,1871.00
2023-04-14T04:14:26.690Z,1872.00
2023-04-14T04:15:26.744Z,1874.00
2023-04-14T04:16:26.843Z,1873.00
2023-04-14T04:17:26.897Z,1871.00
2023-04-14T04:18:26.916Z,1871.00
2023-04-14T04:19:26.972Z,1869.00
2023-04-14T04:20:27.033Z,1868.00
2023-04-14T04:21:27.081Z,1866.00
2023-04-14T04:22:27.147Z,1866.00
2023-04-14T04:23:27.197Z,1862.00
2023-04-14T04:24:27.247Z,1864.00
2023-04-14T04:25:27.319Z,1865.00
2023-04-14T04:26:27.377Z,1863.00
2023-04-14T04:27:28.445Z,1859.00
2023-04-14T04:28:27.489Z,1856.00
2023-04-14T04:29:27.550Z,1859.00
2023-04-14T04:30:27.614Z,1856.00
2023-04-14T04:31:27.691Z,1849.00
2023-04-14T04:32:27.905Z,1847.00
2023-04-14T04:33:27.783Z,1844.00
2023-04-14T04:34:27.845Z,1843.00
2023-04-14T04:35:27.895Z,1843.00
2023-04-14T04:36:27.972Z,1848.00
2023-04-14T04:37:28.021Z,1847.00
2023-04-14T04:38:28.154Z,1843.00
2023-04-14T04:39:28.132Z,1839.00
2023-04-14T04:40:28.194Z,1842.00
2023-04-14T04:41:28.265Z,1843.00
2023-04-14T04:42:28.341Z,1839.00
2023-04-14T04:43:28.372Z,1835.00
2023-04-14T04:44:28.424Z,1832.00
2023-04-14T04:45:28.469Z,1833.00
2023-04-14T04:46:28.566Z,1832.00
2023-04-14T04:47:28.643Z,1830.00
2023-04-14T04:48:28.657Z,1832.00
2023-04-14T04:49:28.691Z,1832.00
2023-04-14T04:50:28.751Z,1832.00
2023-04-14T04:51:28.853Z,1830.00
2023-04-14T04:52:28.866Z,1828.00
2023-04-14T04:53:28.950Z,1826.00
2023-04-14T04:54:28.987Z,1824.00
2023-04-14T04:55:29.036Z,1822.00
2023-04-14T04:56:29.102Z,1822.00
2023-04-14T04:57:29.152Z,1823.00
2023-04-14T04:58:29.197Z,1821.00
2023-04-14T04:59:29.269Z,1820.00
2023-04-14T05:00:29.320Z,1818.00
2023-04-14T05:01:29.396Z,1819.00
2023-04-14T05:02:29.536Z,1822.00
2023-04-14T05:03:29.512Z,1824.00
2023-04-14T05:04:29.611Z,1820.00
2023-04-14T05:05:29.610Z,1819.00
2023-04-14T05:06:29.665Z,1818.00
2023-04-14T05:07:29.729Z,1819.00
2023-04-14T05:08:29.794Z,1818.00
2023-04-14T05:09:29.856Z,1817.00
2023-04-14T05:10:29.918Z,1817.00
2023-04-14T05:11:29.972Z,1812.00
2023-04-14T05:12:30.029Z,1814.00
2023-04-14T05:13:30.078Z,1813.00
2023-04-14T05:14:30.123Z,1810.00
2023-04-14T05:15:30.203Z,1814.00
2023-04-14T05:16:30.245Z,1813.00
2023-04-14T05:17:30.311Z,1812.00
2023-04-14T05:18:30.351Z,1811.00
2023-04-14T05:19:30.403Z,1813.00
2023-04-14T05:20:30.472Z,1813.00
2023-04-14T05:21:30.528Z,1812.00
2023-04-14T05:22:30.602Z,1806.00
2023-04-14T05:23:30.670Z,1807.00
2023-04-14T05:24:30.696Z,1653.00
2023-04-14T05:25:30.745Z,1747.00
2023-04-14T05:26:54.420Z,1771.00
2023-04-14T05:27:31.812Z,1771.00
2023-04-14T05:28:30.819Z,1848.00
2023-04-14T05:29:30.816Z,1851.00
2023-04-14T05:30:30.823Z,1843.00
2023-04-14T05:31:30.851Z,1835.00
2023-04-14T05:32:30.835Z,1827.00
2023-04-14T05:33:30.824Z,1822.00
2023-04-14T05:34:30.837Z,1822.00
2023-04-14T05:35:30.953Z,1821.00
2023-04-14T05:36:31.577Z,1817.00
2023-04-14T05:37:30.841Z,1820.00
2023-04-14T05:38:30.841Z,1820.00
2023-04-14T05:39:30.889Z,1818.00
2023-04-14T05:40:30.948Z,1818.00
2023-04-14T05:41:31.007Z,1817.00
2023-04-14T05:42:31.139Z,1816.00
2023-04-14T05:43:31.144Z,1816.00
2023-04-14T05:44:31.193Z,1816.00
2023-04-14T05:45:31.248Z,1814.00
2023-04-14T05:46:31.332Z,1813.00
2023-04-14T05:47:31.420Z,1814.00
2023-04-14T05:48:31.418Z,1810.00
2023-04-14T05:49:31.483Z,1808.00
2023-04-14T05:50:31.546Z,1809.00
2023-04-14T05:51:31.602Z,1806.00
2023-04-14T05:52:31.654Z,1806.00
2023-04-14T05:53:31.727Z,1807.00
2023-04-14T05:54:31.770Z,1806.00
2023-04-14T05:55:31.833Z,1801.00
2023-04-14T05:56:31.906Z,1799.00
2023-04-14T05:57:31.948Z,1801.00
2023-04-14T05:58:32.010Z,1800.00
2023-04-14T05:59:32.119Z,1797.00
2023-04-14T06:00:32.132Z,1797.00
2023-04-14T06:01:32.271Z,1795.00
2023-04-14T06:02:32.377Z,1794.00
2023-04-14T06:03:32.587Z,1796.00
2023-04-14T06:04:32.443Z,1796.00
2023-04-14T06:05:32.453Z,1794.00
2023-04-14T06:06:32.524Z,1793.00
2023-04-14T06:07:32.543Z,1790.00
2023-04-14T06:08:32.611Z,1793.00
2023-04-14T06:09:32.658Z,1795.00
2023-04-14T06:10:32.718Z,1788.00
2023-04-14T06:11:32.788Z,1786.00
2023-04-14T06:12:32.845Z,1784.00
2023-04-14T06:13:36.137Z,1784.00
2023-04-14T06:14:32.914Z,1785.00
2023-04-14T06:15:32.917Z,1784.00
2023-04-14T06:16:32.985Z,1785.00
2023-04-14T06:17:32.960Z,1786.00
2023-04-14T06:18:32.955Z,1787.00
2023-04-14T06:19:32.941Z,1791.00
2023-04-14T06:20:33.141Z,1791.00
2023-04-14T06:21:32.963Z,1790.00
2023-04-14T06:22:32.965Z,1791.00
2023-04-14T06:23:32.976Z,1784.00
2023-04-14T06:24:32.970Z,1778.00
2023-04-14T06:25:32.971Z,1776.00
2023-04-14T06:26:32.981Z,1770.00
2023-04-14T06:27:33.003Z,1779.00
2023-04-14T06:28:32.996Z,1850.00
2023-04-14T06:29:33.003Z,1811.00
2023-04-14T06:30:33.598Z,1817.00
2023-04-14T06:31:33.634Z,1839.00
2023-04-14T06:32:33.025Z,1877.00
2023-04-14T06:33:33.002Z,1692.00
2023-04-14T06:34:33.025Z,1804.00
2023-04-14T06:35:34.078Z,1877.00
2023-04-14T06:36:33.001Z,1968.00
2023-04-14T06:37:33.000Z,1956.00
2023-04-14T06:38:33.061Z,1983.00
2023-04-14T06:39:32.984Z,2018.00
2023-04-14T06:40:32.977Z,2200.00
2023-04-14T06:41:32.984Z,2123.00
2023-04-14T06:42:32.965Z,2106.00
2023-04-14T06:43:32.965Z,2183.00
2023-04-14T06:44:32.948Z,2210.00
2023-04-14T06:45:32.994Z,2219.00
2023-04-14T06:46:33.105Z,2230.00
2023-04-14T06:47:32.961Z,2291.00
2023-04-14T06:48:32.909Z,2333.00
2023-04-14T06:49:32.899Z,2366.00
2023-04-14T06:50:35.610Z,2515.00
2023-04-14T06:51:32.864Z,2530.00
2023-04-14T06:52:33.604Z,2528.00
2023-04-14T06:53:32.846Z,2541.00
2023-04-14T06:54:32.815Z,2642.00
2023-04-14T06:55:33.525Z,2616.00
2023-04-14T06:56:32.816Z,2634.00
2023-04-14T06:57:32.777Z,2690.00
2023-04-14T06:58:32.792Z,2699.00
2023-04-14T06:59:32.729Z,2587.00
2023-04-14T07:00:32.748Z,2616.00
2023-04-14T07:01:32.768Z,2663.00
2023-04-14T07:02:32.758Z,2702.00
2023-04-14T07:03:32.740Z,2743.00
2023-04-14T07:04:32.686Z,2787.00
2023-04-14T07:05:32.649Z,2810.00
2023-04-14T07:06:32.624Z,3050.00
2023-04-14T07:07:32.615Z,2899.00
2023-04-14T07:08:32.581Z,2916.00
2023-04-14T07:09:32.614Z,2936.00
2023-04-14T07:10:32.559Z,2945.00
2023-04-14T07:11:32.537Z,3089.00
2023-04-14T07:12:32.529Z,3190.00
2023-04-14T07:13:32.511Z,3175.00
2023-04-14T07:14:32.525Z,3180.00
2023-04-14T07:15:32.492Z,3182.00
2023-04-14T07:16:32.662Z,3186.00
2023-04-14T07:17:32.465Z,3201.00
2023-04-14T07:18:32.422Z,3286.00
2023-04-14T07:19:32.413Z,2284.00
2023-04-14T07:20:33.036Z,1790.00
2023-04-14T07:21:32.450Z,1317.00
2023-04-14T07:22:32.476Z,1371.00
2023-04-14T07:23:32.506Z,1397.00
2023-04-14T07:24:32.543Z,1484.00
2023-04-14T07:25:32.605Z,1676.00
2023-04-14T07:26:32.651Z,1793.00
2023-04-14T07:27:32.677Z,1897.00
2023-04-14T07:28:33.540Z,1870.00
2023-04-14T07:29:32.741Z,1878.00
2023-04-14T07:30:32.771Z,1894.00
2023-04-14T07:31:32.819Z,1909.00
2023-04-14T07:32:32.825Z,1932.00
2023-04-14T07:33:32.874Z,1951.00
2023-04-14T07:34:32.837Z,2038.00
2023-04-14T07:35:32.927Z,2053.00
2023-04-14T07:36:32.875Z,2128.00
2023-04-14T07:37:32.863Z,2100.00
2023-04-14T07:38:32.894Z,2116.00
2023-04-14T07:39:32.854Z,2113.00
2023-04-14T07:40:32.845Z,2119.00
2023-04-14T07:41:32.854Z,2193.00
2023-04-14T07:42:32.834Z,2202.00
2023-04-14T07:43:32.846Z,2198.00
2023-04-14T07:44:32.825Z,2208.00
2023-04-14T07:45:32.811Z,2220.00
2023-04-14T07:46:32.824Z,2234.00
2023-04-14T07:47:32.893Z,2245.00
2023-04-14T07:48:32.793Z,2262.00
2023-04-14T07:49:32.791Z,2285.00
2023-04-14T07:50:32.777Z,2302.00
2023-04-14T07:51:32.773Z,2314.00
2023-04-14T07:52:32.759Z,2366.00
2023-04-14T07:53:32.756Z,2370.00
2023-04-14T07:54:33.558Z,2383.00
2023-04-14T07:55:32.794Z,2400.00
2023-04-14T07:56:32.803Z,2486.00
2023-04-14T07:57:32.813Z,2476.00
2023-04-14T07:58:32.818Z,2486.00
2023-04-14T07:59:32.849Z,2498.00
2023-04-14T08:00:32.857Z,2539.00
2023-04-14T08:01:32.878Z,2552.00
2023-04-14T08:02:33.015Z,2562.00
2023-04-14T08:03:33.279Z,2576.00
2023-04-14T08:04:32.978Z,2670.00
2023-04-14T08:05:33.066Z,2673.00
2023-04-14T08:06:33.148Z,2675.00
2023-04-14T08:07:33.072Z,2688.00
2023-04-14T08:08:33.074Z,2712.00
2023-04-14T08:09:33.124Z,2734.00
2023-04-14T08:10:33.158Z,2628.00
2023-04-14T08:11:33.228Z,2732.00
2023-04-14T08:12:33.260Z,2719.00
2023-04-14T08:13:33.306Z,2701.00
2023-04-14T08:14:33.357Z,2678.00
2023-04-14T08:15:33.424Z,2682.00
2023-04-14T08:16:33.456Z,2641.00
2023-04-14T08:17:34.068Z,1891.00
2023-04-14T08:18:33.445Z,1686.00
2023-04-14T08:19:33.442Z,1677.00
2023-04-14T08:20:33.452Z,1604.00
2023-04-14T08:21:33.506Z,1526.00
2023-04-14T08:22:33.515Z,1419.00
2023-04-14T08:23:33.535Z,1276.00
2023-04-14T08:24:34.196Z,1234.00
2023-04-14T08:25:33.678Z,1230.00
2023-04-14T08:26:33.663Z,1425.00
2023-04-14T08:27:36.631Z,1688.00
2023-04-14T08:28:33.711Z,1665.00
2023-04-14T08:29:34.680Z,1651.00
2023-04-14T08:30:33.770Z,1650.00
2023-04-14T08:31:33.710Z,1675.00
2023-04-14T08:32:33.702Z,1810.00
2023-04-14T08:33:33.710Z,1827.00
2023-04-14T08:34:33.690Z,1844.00
2023-04-14T08:35:35.233Z,1970.00
2023-04-14T08:36:34.664Z,1980.00
2023-04-14T08:37:33.636Z,1990.00
2023-04-14T08:38:33.639Z,2013.00
2023-04-14T08:39:33.613Z,2056.00
2023-04-14T08:40:33.613Z,2154.00
2023-04-14T08:41:33.583Z,2159.00
2023-04-14T08:42:34.130Z,2174.00
2023-04-14T08:43:33.551Z,2226.00
2023-04-14T08:44:33.582Z,2233.00
2023-04-14T08:45:33.675Z,2247.00
2023-04-14T08:46:33.700Z,2290.00
2023-04-14T08:47:33.746Z,2307.00
2023-04-14T08:48:33.753Z,2323.00
2023-04-14T08:49:33.803Z,2333.00
2023-04-14T08:50:33.837Z,2348.00
2023-04-14T08:51:33.874Z,2448.00
2023-04-14T08:52:33.880Z,2474.00
2023-04-14T08:53:33.920Z,2554.00
2023-04-14T08:54:33.968Z,2588.00
2023-04-14T08:55:33.968Z,2596.00
2023-04-14T08:56:34.002Z,2604.00
2023-04-14T08:57:34.014Z,2608.00
2023-04-14T08:58:34.031Z,2620.00
2023-04-14T08:59:34.050Z,2636.00
2023-04-14T09:00:34.061Z,2770.00
2023-04-14T09:01:35.824Z,2791.00
2023-04-14T09:02:34.350Z,2799.00
2023-04-14T09:03:34.292Z,2805.00
2023-04-14T09:04:34.217Z,2815.00
2023-04-14T09:05:34.191Z,2827.00
2023-04-14T09:06:34.199Z,2885.00
2023-04-14T09:07:34.216Z,2900.00
2023-04-14T09:08:34.250Z,2930.00
2023-04-14T09:09:36.093Z,3031.00
2023-04-14T09:10:34.319Z,3042.00
2023-04-14T09:11:34.297Z,3051.00
2023-04-14T09:12:35.084Z,3067.00
2023-04-14T09:13:35.147Z,3114.00
2023-04-14T09:14:34.403Z,3119.00
2023-04-14T09:15:34.363Z,3099.00
2023-04-14T09:16:34.398Z,3099.00
2023-04-14T09:17:35.267Z,3112.00
2023-04-14T09:18:34.779Z,3115.00
2023-04-14T09:19:35.405Z,3119.00
2023-04-14T09:20:40.273Z,3116.00
2023-04-14T09:21:53.735Z,3130.00
2023-04-14T09:22:35.342Z,3136.00
2023-04-14T09:23:34.329Z,3123.00
2023-04-14T09:24:34.358Z,3121.00
2023-04-14T09:25:35.082Z,3125.00
2023-04-14T09:26:34.271Z,3141.00
2023-04-14T09:27:34.264Z,3169.00
2023-04-14T09:28:34.276Z,3171.00
2023-04-14T09:29:34.222Z,3177.00
2023-04-14T09:30:34.206Z,3184.00
2023-04-14T09:31:35.287Z,3198.00
2023-04-14T09:32:35.190Z,3221.00
2023-04-14T09:33:34.741Z,3228.00
2023-04-14T09:34:34.119Z,3232.00
2023-04-14T09:35:36.088Z,3235.00
2023-04-14T09:36:34.082Z,3243.00
2023-04-14T09:37:39.801Z,3275.00
2023-04-14T09:38:34.615Z,3301.00
2023-04-14T09:39:34.057Z,3313.00
2023-04-14T09:40:34.595Z,3322.00
2023-04-14T09:41:37.580Z,3345.00
2023-04-14T09:42:33.945Z,3352.00
2023-04-14T09:43:35.666Z,3351.00
2023-04-14T09:44:33.947Z,3365.00
2023-04-14T09:45:33.886Z,3375.00
2023-04-14T09:46:34.629Z,3387.00
2023-04-14T09:47:34.618Z,3403.00
2023-04-14T09:48:33.843Z,3418.00
2023-04-14T09:49:33.889Z,3431.00
2023-04-14T09:50:33.782Z,3435.00
2023-04-14T09:51:33.756Z,3438.00
2023-04-14T09:52:33.759Z,3450.00
2023-04-14T09:53:33.771Z,3459.00
2023-04-14T09:54:34.742Z,3463.00
2023-04-14T09:55:34.661Z,3467.00
2023-04-14T09:56:33.697Z,3484.00
2023-04-14T09:57:33.710Z,3489.00
2023-04-14T09:58:34.596Z,3519.00
2023-04-14T09:59:33.660Z,3529.00
2023-04-14T10:00:34.647Z,3530.00
2023-04-14T10:01:33.871Z,3550.00
2023-04-14T10:02:33.741Z,3569.00
2023-04-14T10:03:34.334Z,3578.00
2023-04-14T10:04:33.616Z,3581.00
2023-04-14T10:05:34.863Z,3586.00
2023-04-14T10:06:33.563Z,3558.00
2023-04-14T10:07:33.562Z,3570.00
2023-04-14T10:08:33.586Z,3577.00
2023-04-14T10:09:33.616Z,3570.00
2023-04-14T10:10:33.647Z,3560.00
2023-04-14T10:11:33.663Z,3550.00
2023-04-14T10:12:33.691Z,3538.00
2023-04-14T10:13:33.708Z,3528.00
2023-04-14T10:14:33.747Z,3521.00
2023-04-14T10:15:33.881Z,3524.00
2023-04-14T10:16:33.980Z,3525.00
2023-04-14T10:17:34.388Z,3521.00
2023-04-14T10:18:33.872Z,3519.00
2023-04-14T10:19:33.899Z,3503.00
2023-04-14T10:20:33.933Z,3494.00
2023-04-14T10:21:33.970Z,3484.00
2023-04-14T10:22:33.993Z,3480.00
2023-04-14T10:23:34.022Z,3479.00
2023-04-14T10:24:34.596Z,3476.00
2023-04-14T10:25:34.077Z,3470.00
2023-04-14T10:26:34.131Z,3464.00
2023-04-14T10:27:34.673Z,3459.00
2023-04-14T10:28:34.476Z,3450.00
2023-04-14T10:29:34.200Z,3445.00
2023-04-14T10:30:34.234Z,3446.00
2023-04-14T10:31:34.346Z,3439.00
2023-04-14T10:32:34.315Z,3441.00
2023-04-14T10:33:35.097Z,3435.00
2023-04-14T10:34:34.330Z,3429.00
2023-04-14T10:35:34.340Z,3423.00
2023-04-14T10:36:34.357Z,3417.00
2023-04-14T10:37:34.366Z,3415.00
2023-04-14T10:38:34.385Z,3404.00
2023-04-14T10:39:34.398Z,3387.00
2023-04-14T10:40:34.422Z,3383.00
2023-04-14T10:41:34.448Z,3383.00
2023-04-14T10:42:34.468Z,3385.00
2023-04-14T10:43:34.470Z,3385.00
2023-04-14T10:44:34.491Z,3376.00
2023-04-14T10:45:34.525Z,3381.00
2023-04-14T10:46:34.574Z,3379.00
2023-04-14T10:47:34.659Z,3381.00
2023-04-14T10:48:34.637Z,3376.00
2023-04-14T10:49:34.655Z,3365.00
2023-04-14T10:50:34.701Z,3361.00
2023-04-14T10:51:34.728Z,3358.00
2023-04-14T10:52:34.771Z,3358.00
2023-04-14T10:53:34.800Z,3355.00
2023-04-14T10:54:34.843Z,3352.00
2023-04-14T10:55:39.999Z,3348.00
2023-04-14T10:56:35.866Z,3346.00
2023-04-14T10:57:35.447Z,3344.00
2023-04-14T10:58:34.833Z,3340.00
2023-04-14T10:59:34.815Z,3334.00
2023-04-14T11:00:34.816Z,3321.00
2023-04-14T11:01:34.801Z,3329.00
2023-04-14T11:02:35.154Z,3329.00
2023-04-14T11:03:34.929Z,3327.00
2023-04-14T11:04:34.819Z,3325.00
2023-04-14T11:05:34.792Z,3322.00
2023-04-14T11:06:34.682Z,3316.00
2023-04-14T11:07:34.684Z,3316.00
2023-04-14T11:08:34.705Z,3317.00
2023-04-14T11:09:34.753Z,3313.00
2023-04-14T11:10:34.858Z,3312.00
2023-04-14T11:11:34.830Z,3309.00
2023-04-14T11:12:34.873Z,3307.00
2023-04-14T11:13:34.908Z,3303.00
2023-04-14T11:14:34.930Z,3292.00
2023-04-14T11:15:34.967Z,3290.00
2023-04-14T11:16:35.053Z,3288.00
2023-04-14T11:17:35.154Z,3284.00
2023-04-14T11:18:35.097Z,3280.00
2023-04-14T11:19:35.110Z,3277.00
2023-04-14T11:20:35.165Z,3284.00
2023-04-14T11:21:35.182Z,3278.00
2023-04-14T11:22:35.244Z,3279.00
2023-04-14T11:23:35.257Z,3277.00
2023-04-14T11:24:35.296Z,3278.00
2023-04-14T11:25:35.346Z,3273.00
2023-04-14T11:26:35.390Z,3268.00
2023-04-14T11:27:35.390Z,3267.00
2023-04-14T11:28:35.449Z,3264.00
2023-04-14T11:29:35.458Z,3268.00
2023-04-14T11:30:35.475Z,3265.00
2023-04-14T11:31:35.536Z,3265.00
2023-04-14T11:32:35.580Z,3259.00
2023-04-14T11:33:35.590Z,3253.00
2023-04-14T11:34:35.640Z,3248.00
2023-04-14T11:35:35.673Z,3247.00
2023-04-14T11:36:35.697Z,3241.00
2023-04-14T11:37:35.733Z,3237.00
2023-04-14T11:38:35.761Z,3235.00
2023-04-14T11:39:35.796Z,3236.00
2023-04-14T11:40:35.843Z,3237.00
2023-04-14T11:41:35.866Z,3238.00
2023-04-14T11:42:35.922Z,3232.00
2023-04-14T11:43:35.927Z,3225.00
2023-04-14T11:44:35.956Z,3224.00
2023-04-14T11:45:35.991Z,3215.00
2023-04-14T11:46:36.145Z,3207.00
2023-04-14T11:47:36.048Z,3201.00
2023-04-14T11:48:36.081Z,3201.00
2023-04-14T11:49:36.174Z,3208.00
2023-04-14T11:50:36.145Z,3206.00
2023-04-14T11:51:36.197Z,3204.00
2023-04-14T11:52:36.220Z,3203.00
2023-04-14T11:53:36.261Z,3192.00
2023-04-14T11:54:36.330Z,3185.00
2023-04-14T11:55:36.388Z,3185.00
2023-04-14T11:56:36.360Z,3183.00
2023-04-14T11:57:36.394Z,3183.00
2023-04-14T11:58:36.436Z,3187.00
2023-04-14T11:59:36.480Z,3185.00
2023-04-14T12:00:36.544Z,3180.00
2023-04-14T12:01:36.567Z,3179.00
2023-04-14T12:02:36.680Z,3174.00
2023-04-14T12:03:36.810Z,3170.00
2023-04-14T12:04:36.800Z,3163.00
2023-04-14T12:05:36.741Z,3163.00